Metar Cercanos

 

LEPA - Palma De Mallorc, Spain
Distance from station: ONO 38km
Actualización: Wed, 27-Jan-2021 2:00pm CET
Muy nuboso
Muy nuboso
 Viento del SSO
Viento: SSO 9 km/h
Temperatura: 20°C
Rocío: 13°C
Humedad: 64%
Barómetro: 1020 hPa
Clouds: Muy nuboso
Visibility: 10 km
Cloud details: Muy nuboso 1524 m
2021/01/27 13:00 LEPA 271300Z 20005KT 140V280 9999 BKN050 20/13 Q1020 NOSIG
LEMH - Mahon/Menorca Is, Spain
Distance from station: ENE 105km
Actualización: Wed, 27-Jan-2021 2:00pm CET
Despejado
Despejado
 Viento del ONO
Viento: ONO 17 km/h
Temperatura: 18°C
Rocío: 11°C
Humedad: 64%
Barómetro: 1019 hPa
Resumen: Despejado
Visibility: greater than 10 km
2021/01/27 13:00 LEMH 271300Z 29009KT 250V350 CAVOK 18/11 Q1019
 
LEIB - Ibiza/Es Codola, Spain
Distance from station: OSO 165km
Actualización: Wed, 27-Jan-2021 2:00pm CET
Despejado
Despejado
 Viento del ONO
Viento: ONO 19 km/h
Temperatura: 22°C
Rocío: 12°C
Humedad: 53%
Barómetro: 1021 hPa
Resumen: Despejado
Visibility: greater than 10 km
2021/01/27 13:00 LEIB 271300Z 29010KT 250V330 CAVOK 22/12 Q1021 NOSIG
LEBL - Barcelona Airpor, Spain
Distance from station: NNO 225km
Actualización: Wed, 27-Jan-2021 2:00pm CET
Few Clouds
Few Clouds
 Viento del SSE
Viento: SSE 9 km/h
Temperatura: 14°C
Rocío: 7°C
Humedad: 63%
Barómetro: 1019 hPa
Clouds: Few Clouds
Visibility: 10 km
Cloud details: Few Clouds 610 m
2021/01/27 13:00 LEBL 271300Z 15005KT 120V190 9999 FEW020 14/07 Q1019 NOSIG
 
LEVC - Valencia (civ/Mi, Spain
Distance from station: NO 188km
Actualización: Wed, 27-Jan-2021 2:00pm CET
Few Clouds
Few Clouds
 Viento del ONO
Viento: ONO 17 km/h
Temperatura: 25°C
Rocío: 11°C
Humedad: 42%
Barómetro: 1021 hPa
Clouds: Few Clouds
Visibility: 10 km
Cloud details: Few Clouds 1067 m
2021/01/27 13:00 LEVC 271300Z 30009KT 260V330 9999 FEW035 25/11 Q1021 NOSIG
LEGE - Gerona/Costa Bra, Spain
Distance from station: N 276km
Actualización: Wed, 27-Jan-2021 2:00pm CET
Few Clouds
Few Clouds
 Viento del OSO
Viento: OSO 6 km/h
Temperatura: 15°C
Rocío: 3°C
Humedad: 45%
Barómetro: 1019 hPa
Clouds: Few Clouds
Visibility: 10 km
Cloud details: Few Clouds 1524 m
2021/01/27 13:00 LEGE 271300Z 25003KT 190V300 9999 FEW050 15/03 Q1019
 
LEAL - Alicante/El Alte, Spain
Distance from station: OSO 344km
Actualización: Wed, 27-Jan-2021 2:00pm CET
Few Clouds
Few Clouds
 Viento del ONO
Viento: ONO 37 km/h
Temperatura: 24°C
Rocío: 11°C
Humedad: 44%
Barómetro: 1022 hPa
Clouds: Few Clouds
Visibility: 10 km
Cloud details: Few Clouds 1829 m
2021/01/27 13:00 LEAL 271300Z 30020KT 9999 FEW060 24/11 Q1022 NOSIG
LEAM - Almeria Airport, Spain
Distance from station: SSO 56km
Actualización: Wed, 27-Jan-2021 2:00pm CET
Few Clouds
Few Clouds
 Viento del varies
Viento: varies 4 km/h
Temperatura: 18°C
Rocío: 13°C
Humedad: 73%
Barómetro: 1023 hPa
Clouds: Few Clouds
Visibility: 10 km
Cloud details: Few Clouds 1219 m
2021/01/27 13:00 LEAM 271300Z VRB02KT 9999 FEW040 18/13 Q1023
 
LEZG - Zaragoza (mil/Ci, Spain
Distance from station: NO 431km
Actualización: Wed, 27-Jan-2021 2:00pm CET
Parcialmente nuboso
Parcialmente nuboso
 Viento del ONO
Viento: ONO 37 km/h
Temperatura: 18°C
Rocío: 12°C
Humedad: 68%
Barómetro: 1022 hPa
Clouds: Parcialmente nuboso
Visibility: 10 km
Cloud details: Parcialmente nuboso 1524 m
2021/01/27 13:00 LEZG 271300Z 29020KT 9999 SCT050 18/12 Q1022
LEMD - Madrid/Barajas, Spain
Distance from station: ONO 234km
Actualización: Wed, 27-Jan-2021 2:00pm CET
Despejado
Despejado
 Viento del calm
Viento: Calma
Temperatura: 17°C
Rocío: 12°C
Humedad: 73%
Barómetro: 1026 hPa
Resumen: Despejado
Visibility: greater than 10 km
2021/01/27 13:00 LEMD 271300Z 00000KT CAVOK 17/12 Q1026 NOSIG
 
LEGR - Granada Airport, Spain
Distance from station: OSO 62km
Actualización: Wed, 27-Jan-2021 2:00pm CET
Few Clouds
Few Clouds
 Viento del ONO
Viento: ONO 6 km/h
Temperatura: 17°C
Rocío: 14°C
Humedad: 83%
Barómetro: 1026 hPa
Clouds: Few Clouds
Visibility: 10 km
Cloud details: Few Clouds 610 m
2021/01/27 13:00 LEGR 271300Z 30003KT 260V010 9999 FEW020 17/14 Q1026
LEMG - Malaga (civ/Mil), Spain
Distance from station: OSO 227km
Actualización: Wed, 27-Jan-2021 2:00pm CET
Few Clouds
Few Clouds
 Viento del O
Viento: O 33 km/h
Temperatura: 22°C
Rocío: 14°C
Humedad: 61%
Barómetro: 1023 hPa
Clouds: Few Clouds
Visibility: 10 km
Cloud details: Few Clouds 914 m
2021/01/27 13:00 LEMG 271300Z 28018KT 9999 FEW030 22/14 Q1023 NOSIG
 
LEZL - Sevilla (civ/Mil, Spain
Distance from station: S 318km
Actualización: Wed, 27-Jan-2021 2:00pm CET
Few Clouds
Few Clouds
 Viento del NNE
Viento: NNE 9 km/h
Temperatura: 19°C
Rocío: 15°C
Humedad: 78%
Barómetro: 1027 hPa
Clouds: Few Clouds
Visibility: 10 km
Cloud details: Few Clouds 305 m
2021/01/27 13:00 LEZL 271300Z 02005KT 340V080 9999 FEW010 19/15 Q1027 NOSIG
LEVT - Vitoria, Spain
Distance from station: NO 226km
Actualización: Wed, 27-Jan-2021 2:00pm CET
Muy nuboso
Muy nuboso
 Viento del O
Viento: O 2 km/h
Temperatura: 14°C
Rocío: 13°C
Humedad: 94%
Barómetro: 1025 hPa
Clouds: Muy nuboso
Visibility: 10 km
Cloud details: Few Clouds 427 m
Muy nuboso 762 m
2021/01/27 13:00 LEVT 271300Z 26001KT 9999 FEW014 BKN025 14/13 Q1025
 
LEBB - Bilbao/Sondica, Spain
Distance from station: NNO 235km
Actualización: Wed, 27-Jan-2021 2:00pm CET
Muy nuboso
Muy nuboso
 Viento del varies
Viento: varies 2 km/h
Temperatura: 16°C
Rocío: 15°C
Humedad: 94%
Barómetro: 1024 hPa
Clouds: Muy nuboso
Visibility: 8 km
Cloud details: Parcialmente nuboso 183 m
Muy nuboso 732 m
2021/01/27 13:00 LEBB 271300Z VRB01KT 8000 SCT006 BKN024 16/15 Q1024 TEMPO 3000 -RA
LESO - San Sebastian/Fu, Spain
Distance from station: N 231km
Actualización: Wed, 27-Jan-2021 2:00pm CET
Rain drizzle, Cubierto
Rain drizzle, Cubierto
 Viento del varies
Viento: varies 4 km/h
Temperatura: 14°C
Rocío: 13°C
Humedad: 94%
Barómetro: 1024 hPa
Resumen: Rain Drizzle
Clouds: Cubierto
Visibility: 2 km
Cloud details: Parcialmente nuboso 213 m
Cubierto 335 m
2021/01/27 13:00 LESO 271300Z VRB02KT 1800 RADZ SCT007 OVC011 14/13 Q1024
 
LEVD - Valladolid(Mil/C, Spain
Distance from station: ONO 239km
Actualización: Wed, 27-Jan-2021 2:00pm CET
Cubierto
Cubierto
 Viento del OSO
Viento: OSO 17 km/h
Temperatura: 13°C
Rocío: 11°C
Humedad: 88%
Barómetro: 1027 hPa
Clouds: Cubierto
Visibility: 10 km
Cloud details: Cubierto 183 m
2021/01/27 13:00 LEVD 271300Z 25009KT 230V290 9999 OVC006 13/11 Q1027
LESA - Salamanca (civ/M, Spain
Distance from station: ONO 349km
Actualización: Wed, 27-Jan-2021 2:00pm CET
Few Clouds
Few Clouds
 Viento del ONO
Viento: ONO 9 km/h
Temperatura: 15°C
Rocío: 10°C
Humedad: 72%
Barómetro: 1028 hPa
Clouds: Few Clouds
Visibility: 10 km
Cloud details: Few Clouds 366 m
2021/01/27 13:00 LESA 271300Z 30005KT 260V340 9999 FEW012 15/10 Q1028
 
LEXJ - Santander/Paraya, Spain
Distance from station: NNO 247km
Actualización: Wed, 27-Jan-2021 2:00pm CET
Muy nuboso
Muy nuboso
 Viento del OSO
Viento: OSO 11 km/h
Temperatura: 18°C
Rocío: 17°C
Humedad: 94%
Barómetro: 1024 hPa
Clouds: Muy nuboso
Visibility: 10 km
Cloud details: Few Clouds 762 m
Muy nuboso 2377 m
2021/01/27 13:00 LEXJ 271300Z 25006KT 210V270 9999 FEW025 BKN078 18/17 Q1024
LEAS - Asturias/Aviles, Spain
Distance from station: NO 214km
Actualización: Wed, 27-Jan-2021 2:00pm CET
Parcialmente nuboso
Parcialmente nuboso
 Viento del ONO
Viento: ONO 15 km/h
Temperatura: 18°C
Rocío: 13°C
Humedad: 73%
Barómetro: 1024 hPa
Clouds: Parcialmente nuboso
Visibility: 10 km
Cloud details: Parcialmente nuboso 1585 m
2021/01/27 13:00 LEAS 271300Z 30008KT 9999 SCT052 18/13 Q1024 NOSIG
 
LECO - La Coruna/Alvedr, Spain
Distance from station: ONO 222km
Actualización: Wed, 27-Jan-2021 2:00pm CET
Muy nuboso
Muy nuboso
 Viento del SSO
Viento: SSO 11 km/h
Temperatura: 16°C
Rocío: 14°C
Humedad: 88%
Barómetro: 1025 hPa
Clouds: Muy nuboso
Visibility: 10 km
Cloud details: Few Clouds 335 m
Muy nuboso 610 m
2021/01/27 13:00 LECO 271300Z 20006KT 160V240 9999 FEW011 BKN020 16/14 Q1025 NOSIG
LEVX - Vigo/Peinador, Spain
Distance from station: O 214km
Actualización: Wed, 27-Jan-2021 2:04pm CET
Niebla, Lluvia débil, Muy nuboso
Niebla, Lluvia débil, Muy nuboso
 Viento del SO
Viento: SO 7 km/h
Temperatura: 14°C
Rocío: 14°C
Humedad: 100%
Barómetro: 1027 hPa
Resumen: Niebla, Lluvia débil
Clouds: Muy nuboso
Visibility: 1 km
Cloud details: Muy nuboso 61 m
Muy nuboso 305 m
2021/01/27 13:04 LEVX 271304Z 22004KT 170V280 0700 R19/1900U R01/1900N FG -RA BKN002 BKN010 14/14 Q1027 NOSIG